EmailTwitter


Observations de surface / Royaume-Uni / EGLL (03772)

Régions: Québec | Canada | États-Unis | Europe | France | UK | Ailleurs
Station
Affichage
Infos & localisation pour EGLL (03772) | Aide pour décoder les METARs

Observations prises le 2020-05-26 à 17H20 UTC à LONDON/HEATHROW, UK (EGLL)

Température: 25.0 Celsius

Point de rosée: 6.0 Celsius

Humidité relative: 30%

Indice Humidex: 25.

Vents: Nord à 9 km/h ou 5 noeuds.

Pression au niveau moyen de la mer: 103.40 kilopascals.

Visibilité horizontale: 6.21 milles terrestres ou 9.94 kilomètres.

Observation METAR:

EGLL 261720Z AUTO 36005KT 310V070 9999 NCD 25/06 Q1034 NOSIG=